sensor_id;sensor_type;location;lat;lon;timestamp;temperature;humidity
6518;DHT22;3292;48.944;9.240;2023-04-25T00:00:47;8.30;99.90
6518;DHT22;3292;48.944;9.240;2023-04-25T00:03:14;8.20;99.90
6518;DHT22;3292;48.944;9.240;2023-04-25T00:05:41;8.20;99.90
6518;DHT22;3292;48.944;9.240;2023-04-25T00:08:08;8.20;99.90
6518;DHT22;3292;48.944;9.240;2023-04-25T00:10:36;8.20;99.90
6518;DHT22;3292;48.944;9.240;2023-04-25T00:13:03;8.10;99.90
6518;DHT22;3292;48.944;9.240;2023-04-25T00:15:30;8.20;99.90
6518;DHT22;3292;48.944;9.240;2023-04-25T00:17:57;8.10;99.90
6518;DHT22;3292;48.944;9.240;2023-04-25T00:20:24;8.10;99.90
6518;DHT22;3292;48.944;9.240;2023-04-25T00:22:51;8.10;99.90
6518;DHT22;3292;48.944;9.240;2023-04-25T00:25:18;8.10;99.90
6518;DHT22;3292;48.944;9.240;2023-04-25T00:27:47;8.10;99.90
6518;DHT22;3292;48.944;9.240;2023-04-25T00:30:14;8.10;99.90
6518;DHT22;3292;48.944;9.240;2023-04-25T00:32:41;8.10;99.90
6518;DHT22;3292;48.944;9.240;2023-04-25T00:35:09;8.10;99.90
6518;DHT22;3292;48.944;9.240;2023-04-25T00:37:35;8.10;99.90
6518;DHT22;3292;48.944;9.240;2023-04-25T00:40:05;8.10;99.90
6518;DHT22;3292;48.944;9.240;2023-04-25T00:42:34;8.10;99.90
6518;DHT22;3292;48.944;9.240;2023-04-25T00:45:05;8.10;99.90
6518;DHT22;3292;48.944;9.240;2023-04-25T00:47:33;8.10;99.90
6518;DHT22;3292;48.944;9.240;2023-04-25T00:50:02;8.10;99.90
6518;DHT22;3292;48.944;9.240;2023-04-25T00:52:29;8.10;99.90
6518;DHT22;3292;48.944;9.240;2023-04-25T00:54:56;8.00;99.90
6518;DHT22;3292;48.944;9.240;2023-04-25T00:57:23;8.00;99.90
6518;DHT22;3292;48.944;9.240;2023-04-25T00:59:51;7.90;99.90
6518;DHT22;3292;48.944;9.240;2023-04-25T01:02:20;7.90;99.90
6518;DHT22;3292;48.944;9.240;2023-04-25T01:04:47;7.90;99.90
6518;DHT22;3292;48.944;9.240;2023-04-25T01:07:15;7.90;99.90
6518;DHT22;3292;48.944;9.240;2023-04-25T01:09:41;7.90;99.90
6518;DHT22;3292;48.944;9.240;2023-04-25T01:12:08;7.90;99.90
6518;DHT22;3292;48.944;9.240;2023-04-25T01:14:37;7.80;99.90
6518;DHT22;3292;48.944;9.240;2023-04-25T01:17:03;7.80;99.90
6518;DHT22;3292;48.944;9.240;2023-04-25T01:19:34;7.80;99.90
6518;DHT22;3292;48.944;9.240;2023-04-25T01:22:06;7.90;99.90
6518;DHT22;3292;48.944;9.240;2023-04-25T01:24:35;7.90;99.90
6518;DHT22;3292;48.944;9.240;2023-04-25T01:27:03;7.90;99.90
6518;DHT22;3292;48.944;9.240;2023-04-25T01:29:33;7.90;99.90
6518;DHT22;3292;48.944;9.240;2023-04-25T01:32:01;7.80;99.90
6518;DHT22;3292;48.944;9.240;2023-04-25T01:34:28;7.90;99.90
6518;DHT22;3292;48.944;9.240;2023-04-25T01:36:55;7.80;99.90
6518;DHT22;3292;48.944;9.240;2023-04-25T01:39:23;7.80;99.90
6518;DHT22;3292;48.944;9.240;2023-04-25T01:41:51;7.80;99.90
6518;DHT22;3292;48.944;9.240;2023-04-25T01:44:17;7.80;99.90
6518;DHT22;3292;48.944;9.240;2023-04-25T01:46:44;7.80;99.90
6518;DHT22;3292;48.944;9.240;2023-04-25T01:49:11;7.80;99.90
6518;DHT22;3292;48.944;9.240;2023-04-25T01:51:38;7.70;99.90
6518;DHT22;3292;48.944;9.240;2023-04-25T01:54:05;7.70;99.90
6518;DHT22;3292;48.944;9.240;2023-04-25T01:56:36;7.70;99.90
6518;DHT22;3292;48.944;9.240;2023-04-25T01:59:04;7.70;99.90
6518;DHT22;3292;48.944;9.240;2023-04-25T02:01:32;7.70;99.90
6518;DHT22;3292;48.944;9.240;2023-04-25T02:03:58;7.70;99.90
6518;DHT22;3292;48.944;9.240;2023-04-25T02:06:25;7.70;99.90
6518;DHT22;3292;48.944;9.240;2023-04-25T02:08:52;7.70;99.90
6518;DHT22;3292;48.944;9.240;2023-04-25T02:11:19;7.70;99.90
6518;DHT22;3292;48.944;9.240;2023-04-25T02:13:47;7.70;99.90
6518;DHT22;3292;48.944;9.240;2023-04-25T02:16:14;7.70;99.90
6518;DHT22;3292;48.944;9.240;2023-04-25T02:18:41;7.70;99.90
6518;DHT22;3292;48.944;9.240;2023-04-25T02:21:10;7.70;99.90
6518;DHT22;3292;48.944;9.240;2023-04-25T02:23:38;7.80;99.90
6518;DHT22;3292;48.944;9.240;2023-04-25T02:26:06;7.80;99.90
6518;DHT22;3292;48.944;9.240;2023-04-25T02:28:34;7.80;99.90
6518;DHT22;3292;48.944;9.240;2023-04-25T02:31:10;7.70;99.90
6518;DHT22;3292;48.944;9.240;2023-04-25T02:33:38;7.70;99.90
6518;DHT22;3292;48.944;9.240;2023-04-25T02:36:06;7.60;99.90
6518;DHT22;3292;48.944;9.240;2023-04-25T02:38:34;7.70;99.90
6518;DHT22;3292;48.944;9.240;2023-04-25T02:41:01;7.60;99.90
6518;DHT22;3292;48.944;9.240;2023-04-25T02:43:28;7.60;99.90
6518;DHT22;3292;48.944;9.240;2023-04-25T02:45:56;7.60;99.90
6518;DHT22;3292;48.944;9.240;2023-04-25T02:48:26;7.60;99.90
6518;DHT22;3292;48.944;9.240;2023-04-25T02:50:54;7.60;99.90
6518;DHT22;3292;48.944;9.240;2023-04-25T02:53:22;7.60;99.90
6518;DHT22;3292;48.944;9.240;2023-04-25T02:55:49;7.60;99.90
6518;DHT22;3292;48.944;9.240;2023-04-25T02:58:18;7.60;99.90
6518;DHT22;3292;48.944;9.240;2023-04-25T03:00:48;7.60;99.90
6518;DHT22;3292;48.944;9.240;2023-04-25T03:03:16;7.60;99.90
6518;DHT22;3292;48.944;9.240;2023-04-25T03:05:45;7.60;99.90
6518;DHT22;3292;48.944;9.240;2023-04-25T03:08:14;7.60;99.90
6518;DHT22;3292;48.944;9.240;2023-04-25T03:10:42;7.60;99.90
6518;DHT22;3292;48.944;9.240;2023-04-25T03:13:10;7.60;99.90
6518;DHT22;3292;48.944;9.240;2023-04-25T03:15:38;7.60;99.90
6518;DHT22;3292;48.944;9.240;2023-04-25T03:18:06;7.70;99.90
6518;DHT22;3292;48.944;9.240;2023-04-25T03:20:34;7.60;99.90
6518;DHT22;3292;48.944;9.240;2023-04-25T03:23:08;7.60;99.90
6518;DHT22;3292;48.944;9.240;2023-04-25T03:25:35;7.60;99.90
6518;DHT22;3292;48.944;9.240;2023-04-25T03:28:06;7.60;99.90
6518;DHT22;3292;48.944;9.240;2023-04-25T03:30:42;7.60;99.90
6518;DHT22;3292;48.944;9.240;2023-04-25T03:33:10;7.60;99.90
6518;DHT22;3292;48.944;9.240;2023-04-25T03:35:37;7.50;99.90
6518;DHT22;3292;48.944;9.240;2023-04-25T03:38:05;7.60;99.90
6518;DHT22;3292;48.944;9.240;2023-04-25T03:40:32;7.60;99.90
6518;DHT22;3292;48.944;9.240;2023-04-25T03:42:59;7.60;99.90
6518;DHT22;3292;48.944;9.240;2023-04-25T03:45:25;7.60;99.90
6518;DHT22;3292;48.944;9.240;2023-04-25T03:47:52;7.60;99.90
6518;DHT22;3292;48.944;9.240;2023-04-25T03:50:20;7.60;99.90
6518;DHT22;3292;48.944;9.240;2023-04-25T03:52:47;7.60;99.90
6518;DHT22;3292;48.944;9.240;2023-04-25T03:55:15;7.60;99.90
6518;DHT22;3292;48.944;9.240;2023-04-25T03:57:42;7.60;99.90
6518;DHT22;3292;48.944;9.240;2023-04-25T04:00:10;7.60;99.90
6518;DHT22;3292;48.944;9.240;2023-04-25T04:02:37;7.60;99.90
6518;DHT22;3292;48.944;9.240;2023-04-25T04:05:05;7.60;99.90
6518;DHT22;3292;48.944;9.240;2023-04-25T04:07:38;7.60;99.90
6518;DHT22;3292;48.944;9.240;2023-04-25T04:10:09;7.60;99.90
6518;DHT22;3292;48.944;9.240;2023-04-25T04:12:47;7.60;99.90
6518;DHT22;3292;48.944;9.240;2023-04-25T04:15:21;7.60;99.90
6518;DHT22;3292;48.944;9.240;2023-04-25T04:17:53;7.60;99.90
6518;DHT22;3292;48.944;9.240;2023-04-25T04:20:21;7.60;99.90
6518;DHT22;3292;48.944;9.240;2023-04-25T04:22:49;7.50;99.90
6518;DHT22;3292;48.944;9.240;2023-04-25T04:25:16;7.50;99.90
6518;DHT22;3292;48.944;9.240;2023-04-25T04:27:45;7.50;99.90
6518;DHT22;3292;48.944;9.240;2023-04-25T04:30:13;7.50;99.90
6518;DHT22;3292;48.944;9.240;2023-04-25T04:32:40;7.50;99.90
6518;DHT22;3292;48.944;9.240;2023-04-25T04:35:08;7.40;99.90
6518;DHT22;3292;48.944;9.240;2023-04-25T04:37:37;7.40;99.90
6518;DHT22;3292;48.944;9.240;2023-04-25T04:40:06;7.40;99.90
6518;DHT22;3292;48.944;9.240;2023-04-25T04:42:34;7.50;99.90
6518;DHT22;3292;48.944;9.240;2023-04-25T04:45:06;7.50;99.90
6518;DHT22;3292;48.944;9.240;2023-04-25T04:47:36;7.50;99.90
6518;DHT22;3292;48.944;9.240;2023-04-25T04:50:08;7.60;99.90
6518;DHT22;3292;48.944;9.240;2023-04-25T04:52:36;7.60;99.90
6518;DHT22;3292;48.944;9.240;2023-04-25T04:55:04;7.70;99.90
6518;DHT22;3292;48.944;9.240;2023-04-25T04:57:33;7.70;99.90
6518;DHT22;3292;48.944;9.240;2023-04-25T05:00:01;7.70;99.90
6518;DHT22;3292;48.944;9.240;2023-04-25T05:02:38;7.70;99.90
6518;DHT22;3292;48.944;9.240;2023-04-25T05:05:07;7.70;99.90
6518;DHT22;3292;48.944;9.240;2023-04-25T05:07:38;7.60;99.90
6518;DHT22;3292;48.944;9.240;2023-04-25T05:10:08;7.60;99.90
6518;DHT22;3292;48.944;9.240;2023-04-25T05:12:36;7.70;99.90
6518;DHT22;3292;48.944;9.240;2023-04-25T05:15:06;7.70;99.90
6518;DHT22;3292;48.944;9.240;2023-04-25T05:17:38;7.70;99.90
6518;DHT22;3292;48.944;9.240;2023-04-25T05:20:09;7.70;99.90
6518;DHT22;3292;48.944;9.240;2023-04-25T05:22:36;7.70;99.90
6518;DHT22;3292;48.944;9.240;2023-04-25T05:25:08;7.70;99.90
6518;DHT22;3292;48.944;9.240;2023-04-25T05:27:38;7.70;99.90
6518;DHT22;3292;48.944;9.240;2023-04-25T05:30:07;7.70;99.90
6518;DHT22;3292;48.944;9.240;2023-04-25T05:32:35;7.80;99.90
6518;DHT22;3292;48.944;9.240;2023-04-25T05:35:04;7.80;99.90
6518;DHT22;3292;48.944;9.240;2023-04-25T05:37:32;7.80;99.90
6518;DHT22;3292;48.944;9.240;2023-04-25T05:40:00;7.80;99.90
6518;DHT22;3292;48.944;9.240;2023-04-25T05:42:26;7.90;99.90
6518;DHT22;3292;48.944;9.240;2023-04-25T05:44:54;7.90;99.90
6518;DHT22;3292;48.944;9.240;2023-04-25T05:47:21;8.00;99.90
6518;DHT22;3292;48.944;9.240;2023-04-25T05:49:51;8.00;99.90
6518;DHT22;3292;48.944;9.240;2023-04-25T05:52:21;8.00;99.90
6518;DHT22;3292;48.944;9.240;2023-04-25T05:54:48;8.00;99.90
6518;DHT22;3292;48.944;9.240;2023-04-25T05:57:21;7.90;99.90
6518;DHT22;3292;48.944;9.240;2023-04-25T05:59:58;8.00;99.90
6518;DHT22;3292;48.944;9.240;2023-04-25T06:02:28;8.00;99.90
6518;DHT22;3292;48.944;9.240;2023-04-25T06:04:56;8.10;99.90
6518;DHT22;3292;48.944;9.240;2023-04-25T06:07:25;8.20;99.90
6518;DHT22;3292;48.944;9.240;2023-04-25T06:09:52;8.20;99.90
6518;DHT22;3292;48.944;9.240;2023-04-25T06:12:23;8.40;99.90
6518;DHT22;3292;48.944;9.240;2023-04-25T06:14:52;8.60;99.90
6518;DHT22;3292;48.944;9.240;2023-04-25T06:17:22;8.80;99.90
6518;DHT22;3292;48.944;9.240;2023-04-25T06:19:50;9.00;99.90
6518;DHT22;3292;48.944;9.240;2023-04-25T06:22:20;9.10;99.90
6518;DHT22;3292;48.944;9.240;2023-04-25T06:24:48;9.10;99.90
6518;DHT22;3292;48.944;9.240;2023-04-25T06:27:15;9.00;99.90
6518;DHT22;3292;48.944;9.240;2023-04-25T06:29:42;9.00;99.90
6518;DHT22;3292;48.944;9.240;2023-04-25T06:32:10;8.90;99.90
6518;DHT22;3292;48.944;9.240;2023-04-25T06:34:40;8.90;99.90
6518;DHT22;3292;48.944;9.240;2023-04-25T06:37:08;9.10;99.90
6518;DHT22;3292;48.944;9.240;2023-04-25T06:39:36;9.50;99.90
6518;DHT22;3292;48.944;9.240;2023-04-25T06:42:09;9.60;99.90
6518;DHT22;3292;48.944;9.240;2023-04-25T06:44:37;9.50;99.90
6518;DHT22;3292;48.944;9.240;2023-04-25T06:47:05;9.50;99.90
6518;DHT22;3292;48.944;9.240;2023-04-25T06:49:33;9.60;99.90
6518;DHT22;3292;48.944;9.240;2023-04-25T06:52:00;9.60;99.90
6518;DHT22;3292;48.944;9.240;2023-04-25T06:54:28;9.50;99.90
6518;DHT22;3292;48.944;9.240;2023-04-25T06:56:56;9.70;99.90
6518;DHT22;3292;48.944;9.240;2023-04-25T06:59:25;9.50;99.90
6518;DHT22;3292;48.944;9.240;2023-04-25T07:01:55;9.50;99.90
6518;DHT22;3292;48.944;9.240;2023-04-25T07:04:22;9.50;99.90
6518;DHT22;3292;48.944;9.240;2023-04-25T07:06:50;9.40;99.90
6518;DHT22;3292;48.944;9.240;2023-04-25T07:09:17;9.40;99.90
6518;DHT22;3292;48.944;9.240;2023-04-25T07:11:45;9.30;99.90
6518;DHT22;3292;48.944;9.240;2023-04-25T07:14:12;9.30;99.90
6518;DHT22;3292;48.944;9.240;2023-04-25T07:16:40;9.30;99.90
6518;DHT22;3292;48.944;9.240;2023-04-25T07:19:07;9.20;99.90
6518;DHT22;3292;48.944;9.240;2023-04-25T07:21:35;9.20;99.90
6518;DHT22;3292;48.944;9.240;2023-04-25T07:24:23;9.20;99.90
6518;DHT22;3292;48.944;9.240;2023-04-25T07:26:51;9.10;99.90
6518;DHT22;3292;48.944;9.240;2023-04-25T07:29:32;9.10;99.90
6518;DHT22;3292;48.944;9.240;2023-04-25T07:32:05;9.00;99.90
6518;DHT22;3292;48.944;9.240;2023-04-25T07:34:33;8.90;99.90
6518;DHT22;3292;48.944;9.240;2023-04-25T07:37:02;8.80;99.90
6518;DHT22;3292;48.944;9.240;2023-04-25T07:39:29;8.80;99.90
6518;DHT22;3292;48.944;9.240;2023-04-25T07:41:56;8.70;99.90
6518;DHT22;3292;48.944;9.240;2023-04-25T07:44:23;8.70;99.90
6518;DHT22;3292;48.944;9.240;2023-04-25T07:46:51;8.80;99.90
6518;DHT22;3292;48.944;9.240;2023-04-25T07:49:20;8.70;99.90
6518;DHT22;3292;48.944;9.240;2023-04-25T07:51:48;8.70;99.90
6518;DHT22;3292;48.944;9.240;2023-04-25T07:54:16;8.70;99.90
6518;DHT22;3292;48.944;9.240;2023-04-25T07:56:44;8.80;99.90
6518;DHT22;3292;48.944;9.240;2023-04-25T07:59:11;8.90;99.90
6518;DHT22;3292;48.944;9.240;2023-04-25T08:01:37;8.90;99.90
6518;DHT22;3292;48.944;9.240;2023-04-25T08:04:05;8.90;99.90
6518;DHT22;3292;48.944;9.240;2023-04-25T08:06:44;9.00;99.90
6518;DHT22;3292;48.944;9.240;2023-04-25T08:09:12;8.90;99.90
6518;DHT22;3292;48.944;9.240;2023-04-25T08:11:41;8.80;99.90
6518;DHT22;3292;48.944;9.240;2023-04-25T08:14:08;8.90;99.90
6518;DHT22;3292;48.944;9.240;2023-04-25T08:16:36;8.90;99.90
6518;DHT22;3292;48.944;9.240;2023-04-25T08:19:08;8.90;99.90
6518;DHT22;3292;48.944;9.240;2023-04-25T08:21:35;9.00;99.90
6518;DHT22;3292;48.944;9.240;2023-04-25T08:24:04;9.10;99.90
6518;DHT22;3292;48.944;9.240;2023-04-25T08:26:31;9.10;99.90
6518;DHT22;3292;48.944;9.240;2023-04-25T08:28:58;9.10;99.90
6518;DHT22;3292;48.944;9.240;2023-04-25T08:31:26;9.10;99.90
6518;DHT22;3292;48.944;9.240;2023-04-25T08:33:53;9.10;99.90
6518;DHT22;3292;48.944;9.240;2023-04-25T08:36:20;9.10;99.90
6518;DHT22;3292;48.944;9.240;2023-04-25T08:38:46;9.00;99.90
6518;DHT22;3292;48.944;9.240;2023-04-25T08:41:15;9.00;99.90
6518;DHT22;3292;48.944;9.240;2023-04-25T08:43:43;9.00;99.90
6518;DHT22;3292;48.944;9.240;2023-04-25T08:46:11;8.80;99.90
6518;DHT22;3292;48.944;9.240;2023-04-25T08:48:40;8.80;99.90
6518;DHT22;3292;48.944;9.240;2023-04-25T08:51:07;8.80;99.90
6518;DHT22;3292;48.944;9.240;2023-04-25T08:53:37;8.70;99.90
6518;DHT22;3292;48.944;9.240;2023-04-25T08:56:12;8.70;99.90
6518;DHT22;3292;48.944;9.240;2023-04-25T08:58:54;8.70;99.90
6518;DHT22;3292;48.944;9.240;2023-04-25T09:01:22;8.80;99.90
6518;DHT22;3292;48.944;9.240;2023-04-25T09:03:53;8.90;99.90
6518;DHT22;3292;48.944;9.240;2023-04-25T09:09:14;9.10;99.90
6518;DHT22;3292;48.944;9.240;2023-04-25T09:11:44;9.20;99.90
6518;DHT22;3292;48.944;9.240;2023-04-25T09:14:15;9.30;99.90
6518;DHT22;3292;48.944;9.240;2023-04-25T09:16:58;9.40;99.90
6518;DHT22;3292;48.944;9.240;2023-04-25T09:19:28;9.50;99.90
6518;DHT22;3292;48.944;9.240;2023-04-25T09:21:56;9.50;99.90
6518;DHT22;3292;48.944;9.240;2023-04-25T09:24:37;9.50;99.90
6518;DHT22;3292;48.944;9.240;2023-04-25T09:27:05;9.50;99.90
6518;DHT22;3292;48.944;9.240;2023-04-25T09:29:57;9.40;99.90
6518;DHT22;3292;48.944;9.240;2023-04-25T09:32:26;9.30;99.90
6518;DHT22;3292;48.944;9.240;2023-04-25T09:34:57;9.30;99.90
6518;DHT22;3292;48.944;9.240;2023-04-25T09:37:26;9.30;99.90
6518;DHT22;3292;48.944;9.240;2023-04-25T09:39:55;9.20;99.90
6518;DHT22;3292;48.944;9.240;2023-04-25T09:42:29;9.10;99.90
6518;DHT22;3292;48.944;9.240;2023-04-25T09:45:08;9.20;99.90
6518;DHT22;3292;48.944;9.240;2023-04-25T09:47:41;9.20;99.90
6518;DHT22;3292;48.944;9.240;2023-04-25T09:50:15;9.30;99.90
6518;DHT22;3292;48.944;9.240;2023-04-25T09:52:42;9.40;99.90
6518;DHT22;3292;48.944;9.240;2023-04-25T09:55:10;9.50;99.90
6518;DHT22;3292;48.944;9.240;2023-04-25T09:57:40;9.50;99.90
6518;DHT22;3292;48.944;9.240;2023-04-25T10:00:11;9.60;99.90
6518;DHT22;3292;48.944;9.240;2023-04-25T10:02:42;9.50;99.90
6518;DHT22;3292;48.944;9.240;2023-04-25T10:05:13;9.40;99.90
6518;DHT22;3292;48.944;9.240;2023-04-25T10:07:42;9.40;99.90
6518;DHT22;3292;48.944;9.240;2023-04-25T10:10:12;9.40;99.90
6518;DHT22;3292;48.944;9.240;2023-04-25T10:12:41;9.30;99.90
6518;DHT22;3292;48.944;9.240;2023-04-25T10:15:14;9.20;99.90
6518;DHT22;3292;48.944;9.240;2023-04-25T10:17:42;9.20;99.90
6518;DHT22;3292;48.944;9.240;2023-04-25T10:20:11;9.00;99.90
6518;DHT22;3292;48.944;9.240;2023-04-25T10:22:43;8.90;99.90
6518;DHT22;3292;48.944;9.240;2023-04-25T10:25:11;8.80;99.90
6518;DHT22;3292;48.944;9.240;2023-04-25T10:27:40;8.60;99.90
6518;DHT22;3292;48.944;9.240;2023-04-25T10:30:13;8.40;99.90
6518;DHT22;3292;48.944;9.240;2023-04-25T10:32:42;8.20;99.90
6518;DHT22;3292;48.944;9.240;2023-04-25T10:35:11;8.00;99.90
6518;DHT22;3292;48.944;9.240;2023-04-25T10:37:38;7.90;99.90
6518;DHT22;3292;48.944;9.240;2023-04-25T10:40:25;8.00;99.90
6518;DHT22;3292;48.944;9.240;2023-04-25T10:42:53;8.10;99.90
6518;DHT22;3292;48.944;9.240;2023-04-25T10:45:22;8.10;99.90
6518;DHT22;3292;48.944;9.240;2023-04-25T10:47:49;8.10;99.90
6518;DHT22;3292;48.944;9.240;2023-04-25T10:50:17;8.10;99.90
6518;DHT22;3292;48.944;9.240;2023-04-25T10:52:45;8.00;99.90
6518;DHT22;3292;48.944;9.240;2023-04-25T10:55:12;8.00;99.90
6518;DHT22;3292;48.944;9.240;2023-04-25T10:57:40;7.90;99.90
6518;DHT22;3292;48.944;9.240;2023-04-25T11:00:11;7.70;99.90
6518;DHT22;3292;48.944;9.240;2023-04-25T11:02:43;7.70;99.90
6518;DHT22;3292;48.944;9.240;2023-04-25T11:05:14;7.80;99.90
6518;DHT22;3292;48.944;9.240;2023-04-25T11:07:48;7.80;99.90
6518;DHT22;3292;48.944;9.240;2023-04-25T11:10:16;7.70;99.90
6518;DHT22;3292;48.944;9.240;2023-04-25T11:12:47;7.70;99.90
6518;DHT22;3292;48.944;9.240;2023-04-25T11:15:14;7.60;99.90
6518;DHT22;3292;48.944;9.240;2023-04-25T11:17:43;7.70;99.90
6518;DHT22;3292;48.944;9.240;2023-04-25T11:20:15;7.70;99.90
6518;DHT22;3292;48.944;9.240;2023-04-25T11:22:46;7.80;99.90
6518;DHT22;3292;48.944;9.240;2023-04-25T11:25:15;7.80;99.90
6518;DHT22;3292;48.944;9.240;2023-04-25T11:27:51;7.80;99.90
6518;DHT22;3292;48.944;9.240;2023-04-25T11:30:23;7.80;99.90
6518;DHT22;3292;48.944;9.240;2023-04-25T11:32:52;7.80;99.90
6518;DHT22;3292;48.944;9.240;2023-04-25T11:35:22;7.90;99.90
6518;DHT22;3292;48.944;9.240;2023-04-25T11:37:51;7.90;99.90
6518;DHT22;3292;48.944;9.240;2023-04-25T11:40:19;8.00;99.90
6518;DHT22;3292;48.944;9.240;2023-04-25T11:42:47;8.00;99.90
6518;DHT22;3292;48.944;9.240;2023-04-25T11:45:18;8.10;99.90
6518;DHT22;3292;48.944;9.240;2023-04-25T11:47:46;8.10;99.90
6518;DHT22;3292;48.944;9.240;2023-04-25T11:50:15;8.00;99.90
6518;DHT22;3292;48.944;9.240;2023-04-25T11:52:47;8.00;99.90
6518;DHT22;3292;48.944;9.240;2023-04-25T11:55:15;8.00;99.90
6518;DHT22;3292;48.944;9.240;2023-04-25T11:57:45;8.00;99.90
6518;DHT22;3292;48.944;9.240;2023-04-25T12:00:14;8.10;99.90
6518;DHT22;3292;48.944;9.240;2023-04-25T12:02:50;8.10;99.90
6518;DHT22;3292;48.944;9.240;2023-04-25T12:05:23;8.20;99.90
6518;DHT22;3292;48.944;9.240;2023-04-25T12:07:51;8.10;99.90
6518;DHT22;3292;48.944;9.240;2023-04-25T12:10:19;8.00;99.90
6518;DHT22;3292;48.944;9.240;2023-04-25T12:12:47;8.10;99.90
6518;DHT22;3292;48.944;9.240;2023-04-25T12:15:16;8.20;99.90
6518;DHT22;3292;48.944;9.240;2023-04-25T12:17:45;8.20;99.90
6518;DHT22;3292;48.944;9.240;2023-04-25T12:20:19;8.30;99.90
6518;DHT22;3292;48.944;9.240;2023-04-25T12:22:50;8.40;99.90
6518;DHT22;3292;48.944;9.240;2023-04-25T12:25:35;8.50;99.90
6518;DHT22;3292;48.944;9.240;2023-04-25T12:28:14;8.50;99.90
6518;DHT22;3292;48.944;9.240;2023-04-25T12:30:59;8.60;99.90
6518;DHT22;3292;48.944;9.240;2023-04-25T12:33:28;8.60;99.90
6518;DHT22;3292;48.944;9.240;2023-04-25T12:36:02;8.70;99.90
6518;DHT22;3292;48.944;9.240;2023-04-25T12:38:40;8.60;99.90
6518;DHT22;3292;48.944;9.240;2023-04-25T12:41:08;8.60;99.90
6518;DHT22;3292;48.944;9.240;2023-04-25T12:43:36;8.70;99.90
6518;DHT22;3292;48.944;9.240;2023-04-25T12:46:04;8.80;99.90
6518;DHT22;3292;48.944;9.240;2023-04-25T12:48:32;8.90;99.90
6518;DHT22;3292;48.944;9.240;2023-04-25T12:51:01;9.10;99.90
6518;DHT22;3292;48.944;9.240;2023-04-25T12:53:29;9.30;99.90
6518;DHT22;3292;48.944;9.240;2023-04-25T12:55:57;9.30;99.90
6518;DHT22;3292;48.944;9.240;2023-04-25T12:58:25;9.30;99.90
6518;DHT22;3292;48.944;9.240;2023-04-25T13:00:52;9.50;99.90
6518;DHT22;3292;48.944;9.240;2023-04-25T13:03:19;9.50;99.90
6518;DHT22;3292;48.944;9.240;2023-04-25T13:05:47;9.60;99.90
6518;DHT22;3292;48.944;9.240;2023-04-25T13:08:17;9.70;99.90
6518;DHT22;3292;48.944;9.240;2023-04-25T13:10:45;9.60;99.90
6518;DHT22;3292;48.944;9.240;2023-04-25T13:13:12;9.80;99.90
6518;DHT22;3292;48.944;9.240;2023-04-25T13:15:48;10.00;99.90
6518;DHT22;3292;48.944;9.240;2023-04-25T13:18:16;10.10;99.90
6518;DHT22;3292;48.944;9.240;2023-04-25T13:20:44;10.30;99.90
6518;DHT22;3292;48.944;9.240;2023-04-25T13:23:12;10.30;99.90
6518;DHT22;3292;48.944;9.240;2023-04-25T13:25:41;10.20;99.90
6518;DHT22;3292;48.944;9.240;2023-04-25T13:28:09;10.10;99.90
6518;DHT22;3292;48.944;9.240;2023-04-25T13:30:36;10.00;99.90
6518;DHT22;3292;48.944;9.240;2023-04-25T13:33:03;10.20;99.90
6518;DHT22;3292;48.944;9.240;2023-04-25T13:35:32;10.20;99.90
6518;DHT22;3292;48.944;9.240;2023-04-25T13:38:03;10.30;99.90
6518;DHT22;3292;48.944;9.240;2023-04-25T13:40:31;10.40;99.90
6518;DHT22;3292;48.944;9.240;2023-04-25T13:43:00;10.40;99.90
6518;DHT22;3292;48.944;9.240;2023-04-25T13:45:30;10.40;99.90
6518;DHT22;3292;48.944;9.240;2023-04-25T13:48:00;10.60;99.90
6518;DHT22;3292;48.944;9.240;2023-04-25T13:50:28;10.70;99.90
6518;DHT22;3292;48.944;9.240;2023-04-25T13:52:56;10.80;99.90
6518;DHT22;3292;48.944;9.240;2023-04-25T13:55:26;10.90;99.90
6518;DHT22;3292;48.944;9.240;2023-04-25T13:57:53;11.00;99.90
6518;DHT22;3292;48.944;9.240;2023-04-25T14:00:26;10.90;99.90
6518;DHT22;3292;48.944;9.240;2023-04-25T14:02:56;10.80;99.90
6518;DHT22;3292;48.944;9.240;2023-04-25T14:05:23;10.80;99.90
6518;DHT22;3292;48.944;9.240;2023-04-25T14:07:56;10.60;99.90
6518;DHT22;3292;48.944;9.240;2023-04-25T14:10:24;10.60;99.90
6518;DHT22;3292;48.944;9.240;2023-04-25T14:12:51;10.70;99.90
6518;DHT22;3292;48.944;9.240;2023-04-25T14:15:19;10.90;99.90
6518;DHT22;3292;48.944;9.240;2023-04-25T14:17:48;11.10;99.90
6518;DHT22;3292;48.944;9.240;2023-04-25T14:20:19;10.90;99.90
6518;DHT22;3292;48.944;9.240;2023-04-25T14:22:47;10.80;99.90
6518;DHT22;3292;48.944;9.240;2023-04-25T14:25:16;10.60;99.90
6518;DHT22;3292;48.944;9.240;2023-04-25T14:27:45;10.50;99.90
6518;DHT22;3292;48.944;9.240;2023-04-25T14:30:15;10.50;99.90
6518;DHT22;3292;48.944;9.240;2023-04-25T14:32:42;10.60;99.90
6518;DHT22;3292;48.944;9.240;2023-04-25T14:35:10;10.60;99.90
6518;DHT22;3292;48.944;9.240;2023-04-25T14:37:37;10.60;99.90
6518;DHT22;3292;48.944;9.240;2023-04-25T14:40:05;10.50;99.90
6518;DHT22;3292;48.944;9.240;2023-04-25T14:42:34;10.20;99.90
6518;DHT22;3292;48.944;9.240;2023-04-25T14:45:02;10.10;99.90
6518;DHT22;3292;48.944;9.240;2023-04-25T14:47:29;10.10;99.90
6518;DHT22;3292;48.944;9.240;2023-04-25T14:49:56;10.10;99.90
6518;DHT22;3292;48.944;9.240;2023-04-25T14:52:25;10.10;99.90
6518;DHT22;3292;48.944;9.240;2023-04-25T14:54:53;9.90;99.90
6518;DHT22;3292;48.944;9.240;2023-04-25T14:57:20;10.00;99.90
6518;DHT22;3292;48.944;9.240;2023-04-25T14:59:48;10.10;99.90
6518;DHT22;3292;48.944;9.240;2023-04-25T15:02:16;10.30;99.90
6518;DHT22;3292;48.944;9.240;2023-04-25T15:04:47;10.70;99.90
6518;DHT22;3292;48.944;9.240;2023-04-25T15:07:17;11.10;99.90
6518;DHT22;3292;48.944;9.240;2023-04-25T15:09:47;11.10;99.90
6518;DHT22;3292;48.944;9.240;2023-04-25T15:12:15;11.00;99.90
6518;DHT22;3292;48.944;9.240;2023-04-25T15:14:42;10.90;99.90
6518;DHT22;3292;48.944;9.240;2023-04-25T15:17:19;10.70;99.90
6518;DHT22;3292;48.944;9.240;2023-04-25T15:19:46;10.80;99.90
6518;DHT22;3292;48.944;9.240;2023-04-25T15:22:14;10.80;99.90
6518;DHT22;3292;48.944;9.240;2023-04-25T15:24:41;10.90;99.90
6518;DHT22;3292;48.944;9.240;2023-04-25T15:27:10;11.00;99.90
6518;DHT22;3292;48.944;9.240;2023-04-25T15:29:38;11.00;99.90
6518;DHT22;3292;48.944;9.240;2023-04-25T15:32:05;10.90;99.90
6518;DHT22;3292;48.944;9.240;2023-04-25T15:34:33;10.80;99.90
6518;DHT22;3292;48.944;9.240;2023-04-25T15:37:01;10.80;99.90
6518;DHT22;3292;48.944;9.240;2023-04-25T15:39:28;10.90;99.90
6518;DHT22;3292;48.944;9.240;2023-04-25T15:41:56;10.90;99.90
6518;DHT22;3292;48.944;9.240;2023-04-25T15:44:25;11.10;99.90
6518;DHT22;3292;48.944;9.240;2023-04-25T15:46:52;11.10;99.90
6518;DHT22;3292;48.944;9.240;2023-04-25T15:49:19;11.20;99.90
6518;DHT22;3292;48.944;9.240;2023-04-25T15:51:47;11.10;99.90
6518;DHT22;3292;48.944;9.240;2023-04-25T15:54:15;11.20;99.90
6518;DHT22;3292;48.944;9.240;2023-04-25T15:56:42;11.10;99.90
6518;DHT22;3292;48.944;9.240;2023-04-25T15:59:10;11.10;99.90
6518;DHT22;3292;48.944;9.240;2023-04-25T16:01:39;10.90;99.90
6518;DHT22;3292;48.944;9.240;2023-04-25T16:04:09;10.80;99.90
6518;DHT22;3292;48.944;9.240;2023-04-25T16:06:36;10.70;99.90
6518;DHT22;3292;48.944;9.240;2023-04-25T16:09:03;10.70;99.90
6518;DHT22;3292;48.944;9.240;2023-04-25T16:11:31;10.60;99.90
6518;DHT22;3292;48.944;9.240;2023-04-25T16:13:57;10.50;99.90
6518;DHT22;3292;48.944;9.240;2023-04-25T16:16:27;10.40;99.90
6518;DHT22;3292;48.944;9.240;2023-04-25T16:18:56;10.30;99.90
6518;DHT22;3292;48.944;9.240;2023-04-25T16:21:23;10.20;99.90
6518;DHT22;3292;48.944;9.240;2023-04-25T16:23:54;10.20;99.90
6518;DHT22;3292;48.944;9.240;2023-04-25T16:26:21;10.20;99.90
6518;DHT22;3292;48.944;9.240;2023-04-25T16:28:48;10.20;99.90